createdAt,value
2023-01-03T00:01:11.737Z,101065.11
2023-01-03T00:04:45.835Z,101076.15
2023-01-03T00:08:16.560Z,101083.71
2023-01-03T00:12:02.059Z,101081.55
2023-01-03T00:15:29.984Z,101073.39
2023-01-03T00:19:00.211Z,101076.45
2023-01-03T00:22:30.336Z,101080.95
2023-01-03T00:25:59.667Z,101085.27
2023-01-03T00:29:26.868Z,101087.46
2023-01-03T00:32:54.296Z,101092.95
2023-01-03T00:36:21.769Z,101102.04
2023-01-03T00:39:48.989Z,101112.48
2023-01-03T00:43:31.232Z,101116.11
2023-01-03T00:46:58.319Z,101127.87
2023-01-03T00:50:25.726Z,101138.40
2023-01-03T00:53:57.843Z,101141.28
2023-01-03T00:57:25.402Z,101148.51
2023-01-03T01:00:52.547Z,101157.66
2023-01-03T01:04:22.074Z,101163.02
2023-01-03T01:07:48.953Z,101167.31
2023-01-03T01:11:17.559Z,101173.92
2023-01-03T01:14:44.385Z,101181.02
2023-01-03T01:18:11.801Z,101188.23
2023-01-03T01:21:41.287Z,101191.11
2023-01-03T01:25:09.832Z,101189.48
2023-01-03T01:28:37.321Z,101186.59
2023-01-03T01:32:04.475Z,101191.25
2023-01-03T01:35:34.498Z,101194.22
2023-01-03T01:39:00.644Z,101197.16
2023-01-03T01:42:45.413Z,101201.41
2023-01-03T01:46:19.066Z,101205.96
2023-01-03T01:49:46.894Z,101205.77
2023-01-03T01:53:17.085Z,101209.16
2023-01-03T01:56:47.677Z,101206.15
2023-01-03T02:00:16.364Z,101205.60
2023-01-03T02:03:46.462Z,101208.55
2023-01-03T02:07:13.864Z,101205.77
2023-01-03T02:10:57.795Z,101215.10
2023-01-03T02:14:41.038Z,101220.21
2023-01-03T02:18:20.759Z,101223.38
2023-01-03T02:22:14.228Z,101226.14
2023-01-03T02:26:18.434Z,101232.73
2023-01-03T02:30:18.812Z,101240.36
2023-01-03T02:33:55.096Z,101243.66
2023-01-03T02:37:31.494Z,101251.09
2023-01-03T02:41:05.639Z,101255.65
2023-01-03T02:44:37.313Z,101262.63
2023-01-03T02:48:10.723Z,101262.42
2023-01-03T02:51:42.354Z,101263.23
2023-01-03T02:55:16.055Z,101270.45
2023-01-03T02:58:47.740Z,101272.05
2023-01-03T03:02:16.584Z,101279.33
2023-01-03T03:05:51.052Z,101284.66
2023-01-03T03:09:18.117Z,101286.99
2023-01-03T03:13:06.991Z,101289.54
2023-01-03T03:16:51.195Z,101292.03
2023-01-03T03:20:38.033Z,101295.27
2023-01-03T03:24:32.669Z,101293.02
2023-01-03T03:28:21.571Z,101296.52
2023-01-03T03:31:51.371Z,101296.59
2023-01-03T03:35:23.833Z,101298.98
2023-01-03T03:38:51.360Z,101300.79
2023-01-03T03:42:40.691Z,101305.20
2023-01-03T03:46:14.805Z,101311.59
2023-01-03T03:49:46.859Z,101315.42
2023-01-03T03:53:15.831Z,101322.93
2023-01-03T03:56:47.700Z,101327.83
2023-01-03T04:00:23.981Z,101329.15
2023-01-03T04:03:54.654Z,101333.44
2023-01-03T04:07:21.524Z,101339.16
2023-01-03T04:10:48.687Z,101340.19
2023-01-03T04:14:15.713Z,101337.49
2023-01-03T04:17:42.540Z,101335.36
2023-01-03T04:21:12.092Z,101341.42
2023-01-03T04:24:41.095Z,101349.72
2023-01-03T04:28:08.431Z,101358.73
2023-01-03T04:31:35.415Z,101362.99
2023-01-03T04:35:02.338Z,101365.33
2023-01-03T04:38:30.314Z,101378.59
2023-01-03T04:41:57.193Z,101388.63
2023-01-03T04:45:24.570Z,101392.00
2023-01-03T04:48:51.623Z,101392.33
2023-01-03T04:52:19.232Z,101400.38
2023-01-03T04:55:50.479Z,101407.77
2023-01-03T04:59:17.752Z,101406.67
2023-01-03T05:02:44.729Z,101401.09
2023-01-03T05:06:13.487Z,101402.45
2023-01-03T05:09:40.449Z,101404.33
2023-01-03T05:13:08.510Z,101409.38
2023-01-03T05:16:35.706Z,101415.52
2023-01-03T05:20:20.100Z,101415.89
2023-01-03T05:24:05.078Z,101414.11
2023-01-03T05:27:32.340Z,101418.02
2023-01-03T05:31:01.239Z,101424.89
2023-01-03T05:34:31.965Z,101426.08
2023-01-03T05:37:58.836Z,101425.20
2023-01-03T05:41:43.573Z,101427.30
2023-01-03T05:45:12.139Z,101433.82
2023-01-03T05:48:39.008Z,101439.59
2023-01-03T05:52:06.360Z,101448.69
2023-01-03T05:55:33.308Z,101458.08
2023-01-03T05:59:00.652Z,101460.77
2023-01-03T06:02:31.113Z,101463.97
2023-01-03T06:06:02.941Z,101472.01
2023-01-03T06:09:30.018Z,101481.28
2023-01-03T06:12:57.034Z,101488.02
2023-01-03T06:16:42.428Z,101491.57
2023-01-03T06:20:11.403Z,101502.15
2023-01-03T06:23:38.310Z,101506.66
2023-01-03T06:27:05.581Z,101515.87
2023-01-03T06:30:32.576Z,101518.98
2023-01-03T06:33:59.660Z,101527.85
2023-01-03T06:37:28.037Z,101530.64
2023-01-03T06:40:55.036Z,101535.77
2023-01-03T06:44:21.929Z,101539.59
2023-01-03T06:48:06.580Z,101545.02
2023-01-03T06:51:51.930Z,101554.95
2023-01-03T06:55:20.472Z,101562.42
2023-01-03T06:58:47.454Z,101567.45
2023-01-03T07:02:14.878Z,101575.27
2023-01-03T07:05:42.128Z,101585.30
2023-01-03T07:09:10.348Z,101589.38
2023-01-03T07:12:55.146Z,101597.23
2023-01-03T07:16:22.952Z,101603.61
2023-01-03T07:19:49.987Z,101609.82
2023-01-03T07:23:17.025Z,101611.41
2023-01-03T07:26:44.358Z,101615.84
2023-01-03T07:30:17.900Z,101614.58
2023-01-03T07:33:45.385Z,101624.96
2023-01-03T07:37:12.262Z,101627.13
2023-01-03T07:40:39.500Z,101629.38
2023-01-03T07:44:07.079Z,101635.15
2023-01-03T07:47:34.236Z,101641.64
2023-01-03T07:51:02.507Z,101645.52
2023-01-03T07:54:29.630Z,101648.13
2023-01-03T07:57:56.870Z,101652.65
2023-01-03T08:01:25.486Z,101657.05
2023-01-03T08:04:52.842Z,101661.80
2023-01-03T08:08:19.848Z,101658.58
2023-01-03T08:12:04.810Z,101666.98
2023-01-03T08:15:31.869Z,101672.40
2023-01-03T08:19:01.892Z,101674.76
2023-01-03T08:22:33.920Z,101682.19
2023-01-03T08:26:07.558Z,101681.45
2023-01-03T08:29:38.330Z,101687.09
2023-01-03T08:33:09.721Z,101690.40
2023-01-03T08:36:40.359Z,101697.45
2023-01-03T08:40:12.004Z,101694.27
2023-01-03T08:43:42.588Z,101691.54
2023-01-03T08:47:11.276Z,101699.38
2023-01-03T08:50:38.698Z,101703.94
2023-01-03T08:54:05.958Z,101702.84
2023-01-03T08:57:33.152Z,101707.25
2023-01-03T09:01:04.222Z,101715.45
2023-01-03T09:04:31.521Z,101720.92
2023-01-03T09:07:59.003Z,101729.58
2023-01-03T09:11:26.186Z,101730.31
2023-01-03T09:14:53.293Z,101733.42
2023-01-03T09:18:20.202Z,101735.13
2023-01-03T09:21:47.130Z,101734.32
2023-01-03T09:25:14.027Z,101732.31
2023-01-03T09:28:43.451Z,101736.80
2023-01-03T09:32:10.718Z,101734.94
2023-01-03T09:35:38.245Z,101739.09
2023-01-03T09:39:05.294Z,101737.55
2023-01-03T09:42:53.444Z,101735.34
2023-01-03T09:46:23.114Z,101744.52
2023-01-03T09:50:18.759Z,101742.58
2023-01-03T09:54:00.131Z,101741.33
2023-01-03T09:57:47.726Z,101743.51
2023-01-03T10:01:46.150Z,101748.06
2023-01-03T10:05:38.005Z,101751.95
2023-01-03T10:09:17.748Z,101754.98
2023-01-03T10:12:46.385Z,101757.05
2023-01-03T10:16:21.355Z,101759.39
2023-01-03T10:20:13.349Z,101757.08
2023-01-03T10:23:40.444Z,101754.21
2023-01-03T10:27:19.258Z,101754.09
2023-01-03T10:31:13.214Z,101753.38
2023-01-03T10:34:41.515Z,101752.40
2023-01-03T10:38:18.172Z,101754.73
2023-01-03T10:41:48.890Z,101758.23
2023-01-03T10:45:21.297Z,101752.36
2023-01-03T10:49:25.922Z,101747.01
2023-01-03T10:52:41.868Z,101745.91
2023-01-03T10:56:09.898Z,101753.91
2023-01-03T10:59:37.355Z,101749.95
2023-01-03T11:03:17.651Z,101753.10
2023-01-03T11:06:59.879Z,101753.71
2023-01-03T11:10:32.578Z,101747.50
2023-01-03T11:14:19.273Z,101745.81
2023-01-03T11:18:00.293Z,101746.64
2023-01-03T11:21:36.805Z,101750.10
2023-01-03T11:25:12.869Z,101752.35
2023-01-03T11:29:09.082Z,101754.14
2023-01-03T11:32:47.772Z,101746.09
2023-01-03T11:36:35.368Z,101749.66
2023-01-03T11:40:15.732Z,101745.65
2023-01-03T11:43:54.492Z,101747.80
2023-01-03T11:47:32.194Z,101745.95
2023-01-03T11:51:10.338Z,101752.46
2023-01-03T11:55:18.282Z,101746.76
2023-01-03T11:58:58.439Z,101749.72
2023-01-03T12:02:57.197Z,101748.58
2023-01-03T12:06:35.360Z,101749.23
2023-01-03T12:10:15.196Z,101750.70
2023-01-03T12:13:49.378Z,101750.20
2023-01-03T12:17:24.349Z,101752.73
2023-01-03T12:20:57.166Z,101752.28
2023-01-03T12:24:32.963Z,101755.05
2023-01-03T12:28:12.538Z,101756.06
2023-01-03T12:31:45.782Z,101762.20
2023-01-03T12:35:34.053Z,101759.48
2023-01-03T12:39:14.516Z,101763.02
2023-01-03T12:42:47.347Z,101762.33
2023-01-03T12:46:18.531Z,101760.80
2023-01-03T12:49:52.811Z,101759.60
2023-01-03T12:53:34.073Z,101757.44
2023-01-03T12:57:14.506Z,101751.58
2023-01-03T13:00:55.891Z,101750.92
2023-01-03T13:04:26.563Z,101749.99
2023-01-03T13:08:03.756Z,101750.40
2023-01-03T13:11:38.195Z,101749.61
2023-01-03T13:15:20.311Z,101754.80
2023-01-03T13:18:47.421Z,101755.98
2023-01-03T13:22:47.734Z,101755.42
2023-01-03T13:26:23.660Z,101750.88
2023-01-03T13:29:58.583Z,101753.14
2023-01-03T13:33:25.471Z,101758.17
2023-01-03T13:37:17.817Z,101764.95
2023-01-03T13:41:16.759Z,101760.64
2023-01-03T13:44:35.301Z,101757.80
2023-01-03T13:48:17.182Z,101764.70
2023-01-03T13:51:54.994Z,101763.95
2023-01-03T13:59:27.715Z,101767.48
2023-01-03T14:03:35.281Z,101762.23
2023-01-03T14:07:25.560Z,101769.16
2023-01-03T14:11:09.072Z,101770.03
2023-01-03T14:14:42.397Z,101779.83
2023-01-03T14:18:22.943Z,101781.89
2023-01-03T14:21:54.183Z,101793.59
2023-01-03T14:25:39.019Z,101794.41
2023-01-03T14:29:15.082Z,101800.30
2023-01-03T14:32:42.526Z,101803.27
2023-01-03T14:36:14.762Z,101805.44
2023-01-03T14:39:41.844Z,101809.88
2023-01-03T14:43:20.950Z,101813.59
2023-01-03T14:46:55.735Z,101813.66
2023-01-03T14:50:27.704Z,101811.01
2023-01-03T14:53:55.203Z,101815.34
2023-01-03T14:57:26.465Z,101822.48
2023-01-03T15:01:00.985Z,101828.43
2023-01-03T15:04:28.209Z,101833.06
2023-01-03T15:07:55.940Z,101836.11
2023-01-03T15:11:33.522Z,101838.83
2023-01-03T15:15:07.497Z,101833.31
2023-01-03T15:18:37.995Z,101834.85
2023-01-03T15:22:16.446Z,101832.95
2023-01-03T15:25:44.505Z,101836.19
2023-01-03T15:29:15.949Z,101841.28
2023-01-03T15:32:54.242Z,101844.33
2023-01-03T15:36:21.688Z,101840.45
2023-01-03T15:39:51.691Z,101844.23
2023-01-03T15:43:26.656Z,101845.84
2023-01-03T15:46:57.313Z,101845.77
2023-01-03T15:50:28.368Z,101848.14
2023-01-03T15:53:58.276Z,101849.70
2023-01-03T15:57:30.774Z,101851.73
2023-01-03T16:00:58.478Z,101861.48
2023-01-03T16:04:38.047Z,101865.61
2023-01-03T16:08:11.201Z,101863.30
2023-01-03T16:11:38.633Z,101868.52
2023-01-03T16:15:08.641Z,101874.66
2023-01-03T16:18:40.333Z,101883.59
2023-01-03T16:22:33.804Z,101886.20
2023-01-03T16:25:55.685Z,101890.47
2023-01-03T16:29:22.712Z,101888.52
2023-01-03T16:32:51.644Z,101888.58
2023-01-03T16:36:29.475Z,101890.11
2023-01-03T16:39:59.416Z,101888.89
2023-01-03T16:43:29.723Z,101882.28
2023-01-03T16:46:56.812Z,101881.31
2023-01-03T16:50:24.215Z,101885.77
2023-01-03T16:53:52.218Z,101890.39
2023-01-03T16:57:22.004Z,101895.42
2023-01-03T17:00:51.064Z,101902.20
2023-01-03T17:04:18.352Z,101904.64
2023-01-03T17:07:47.957Z,101907.80
2023-01-03T17:11:13.347Z,101909.35
2023-01-03T17:14:40.676Z,101907.61
2023-01-03T17:18:12.360Z,101903.67
2023-01-03T17:21:39.250Z,101900.23
2023-01-03T17:25:07.555Z,101901.55
2023-01-03T17:28:35.151Z,101900.50
2023-01-03T17:32:03.159Z,101905.77
2023-01-03T17:35:30.539Z,101910.27
2023-01-03T17:39:01.995Z,101913.00
2023-01-03T17:42:30.150Z,101915.13
2023-01-03T17:46:23.429Z,101917.92
2023-01-03T17:49:51.435Z,101918.98
2023-01-03T17:53:22.506Z,101928.78
2023-01-03T17:56:49.528Z,101932.45
2023-01-03T18:00:23.330Z,101933.55
2023-01-03T18:03:50.494Z,101933.63
2023-01-03T18:07:23.793Z,101943.08
2023-01-03T18:10:53.440Z,101950.02
2023-01-03T18:14:19.148Z,101946.59
2023-01-03T18:17:47.398Z,101947.38
2023-01-03T18:21:23.173Z,101945.04
2023-01-03T18:25:03.228Z,101939.31
2023-01-03T18:28:31.506Z,101940.21
2023-01-03T18:31:58.723Z,101942.38
2023-01-03T18:35:30.936Z,101943.08
2023-01-03T18:39:08.722Z,101941.82
2023-01-03T18:42:56.169Z,101947.02
2023-01-03T18:46:28.147Z,101953.78
2023-01-03T18:49:55.276Z,101952.27
2023-01-03T18:53:26.728Z,101951.49
2023-01-03T18:56:53.567Z,101951.64
2023-01-03T19:00:23.990Z,101957.65
2023-01-03T19:03:51.098Z,101962.38
2023-01-03T19:07:27.315Z,101964.61
2023-01-03T19:10:54.493Z,101958.92
2023-01-03T19:14:21.876Z,101958.73
2023-01-03T19:17:49.016Z,101962.00
2023-01-03T19:21:17.336Z,101962.74
2023-01-03T19:24:44.383Z,101962.45
2023-01-03T19:28:13.394Z,101959.07
2023-01-03T19:31:46.996Z,101959.66
2023-01-03T19:35:18.747Z,101963.51
2023-01-03T19:38:45.664Z,101968.23
2023-01-03T19:42:34.247Z,101972.45
2023-01-03T19:46:01.207Z,101972.83
2023-01-03T19:49:29.152Z,101967.21
2023-01-03T19:52:57.229Z,101965.19
2023-01-03T19:56:25.488Z,101963.16
2023-01-03T19:59:56.089Z,101960.06
2023-01-03T20:03:29.860Z,101958.46
2023-01-03T20:06:57.473Z,101957.17
2023-01-03T20:10:27.018Z,101957.89
2023-01-03T20:13:53.129Z,101951.61
2023-01-03T20:17:23.547Z,101958.69
2023-01-03T20:20:51.533Z,101954.05
2023-01-03T20:24:25.838Z,101953.27
2023-01-03T20:27:53.715Z,101957.30
2023-01-03T20:31:21.091Z,101960.51
2023-01-03T20:34:48.396Z,101965.63
2023-01-03T20:38:16.951Z,101965.36
2023-01-03T20:41:46.125Z,101967.05
2023-01-03T20:45:18.305Z,101967.53
2023-01-03T20:48:45.812Z,101968.27
2023-01-03T20:52:17.677Z,101965.13
2023-01-03T20:55:49.440Z,101963.86
2023-01-03T20:59:20.347Z,101958.45
2023-01-03T21:02:47.675Z,101955.60
2023-01-03T21:06:20.709Z,101955.14
2023-01-03T21:09:47.891Z,101955.11
2023-01-03T21:13:14.838Z,101954.88
2023-01-03T21:16:45.195Z,101963.05
2023-01-03T21:20:18.583Z,101966.45
2023-01-03T21:23:47.967Z,101964.45
2023-01-03T21:27:15.143Z,101965.88
2023-01-03T21:30:43.248Z,101964.23
2023-01-03T21:34:17.742Z,101957.27
2023-01-03T21:37:45.411Z,101961.17
2023-01-03T21:41:19.482Z,101964.50
2023-01-03T21:44:46.378Z,101966.41
2023-01-03T21:48:16.520Z,101967.63
2023-01-03T21:51:44.429Z,101967.39
2023-01-03T21:55:13.040Z,101964.75
2023-01-03T21:58:40.680Z,101962.09
2023-01-03T22:02:28.580Z,101959.65
2023-01-03T22:06:07.507Z,101964.55
2023-01-03T22:09:52.493Z,101961.58
2023-01-03T22:13:22.299Z,101960.25
2023-01-03T22:16:49.237Z,101967.09
2023-01-03T22:20:18.657Z,101963.42
2023-01-03T22:23:45.558Z,101954.15
2023-01-03T22:27:12.574Z,101951.34
2023-01-03T22:30:42.099Z,101952.46
2023-01-03T22:34:09.343Z,101950.91
2023-01-03T22:37:37.263Z,101950.95
2023-01-03T22:41:09.220Z,101950.79
2023-01-03T22:44:36.738Z,101959.80
2023-01-03T22:48:03.709Z,101956.33
2023-01-03T22:51:30.967Z,101952.52
2023-01-03T22:54:57.918Z,101948.73
2023-01-03T22:58:24.810Z,101947.70
2023-01-03T23:01:52.330Z,101949.80
2023-01-03T23:05:19.528Z,101950.58
2023-01-03T23:08:51.225Z,101953.58
2023-01-03T23:12:36.260Z,101953.11
2023-01-03T23:16:05.725Z,101940.09
2023-01-03T23:19:31.048Z,101935.41
2023-01-03T23:23:02.800Z,101927.18
2023-01-03T23:26:29.819Z,101925.33
2023-01-03T23:29:56.897Z,101921.91
2023-01-03T23:33:24.382Z,101920.89
2023-01-03T23:36:51.398Z,101919.63
2023-01-03T23:40:18.693Z,101912.43
2023-01-03T23:43:45.853Z,101908.15
2023-01-03T23:47:13.055Z,101912.96
2023-01-03T23:50:40.121Z,101911.48
2023-01-03T23:54:07.193Z,101918.33
2023-01-03T23:57:34.437Z,101921.13
